sensor_id;sensor_type;location;lat;lon;timestamp;P1;durP1;ratioP1;P2;durP2;ratioP2
48963;SDS011;34776;48.180;16.420;2022-08-21T00:01:25;3.10;;;2.88;;
48963;SDS011;34776;48.180;16.420;2022-08-21T00:03:53;3.10;;;2.90;;
48963;SDS011;34776;48.180;16.420;2022-08-21T00:06:19;3.00;;;2.80;;
48963;SDS011;34776;48.180;16.420;2022-08-21T00:08:45;3.75;;;2.85;;
48963;SDS011;34776;48.180;16.420;2022-08-21T00:11:11;3.00;;;2.72;;
48963;SDS011;34776;48.180;16.420;2022-08-21T00:13:36;2.88;;;2.67;;
48963;SDS011;34776;48.180;16.420;2022-08-21T00:16:05;3.10;;;2.85;;
48963;SDS011;34776;48.180;16.420;2022-08-21T00:18:32;3.03;;;2.83;;
48963;SDS011;34776;48.180;16.420;2022-08-21T00:20:58;4.43;;;2.85;;
48963;SDS011;34776;48.180;16.420;2022-08-21T00:23:23;3.10;;;2.80;;
48963;SDS011;34776;48.180;16.420;2022-08-21T00:25:48;2.80;;;2.60;;
48963;SDS011;34776;48.180;16.420;2022-08-21T00:28:14;2.97;;;2.67;;
48963;SDS011;34776;48.180;16.420;2022-08-21T00:30:40;3.00;;;2.70;;
48963;SDS011;34776;48.180;16.420;2022-08-21T00:33:08;2.75;;;2.55;;
48963;SDS011;34776;48.180;16.420;2022-08-21T00:35:36;3.20;;;2.90;;
48963;SDS011;34776;48.180;16.420;2022-08-21T00:38:04;2.58;;;2.38;;
48963;SDS011;34776;48.180;16.420;2022-08-21T00:40:36;3.28;;;2.85;;
48963;SDS011;34776;48.180;16.420;2022-08-21T00:43:04;3.17;;;2.97;;
48963;SDS011;34776;48.180;16.420;2022-08-21T00:45:31;4.50;;;2.90;;
48963;SDS011;34776;48.180;16.420;2022-08-21T00:47:57;3.85;;;3.40;;
48963;SDS011;34776;48.180;16.420;2022-08-21T00:50:22;3.42;;;3.13;;
48963;SDS011;34776;48.180;16.420;2022-08-21T00:52:52;3.72;;;3.38;;
48963;SDS011;34776;48.180;16.420;2022-08-21T00:55:18;3.55;;;3.17;;
48963;SDS011;34776;48.180;16.420;2022-08-21T00:57:47;3.53;;;3.17;;
48963;SDS011;34776;48.180;16.420;2022-08-21T01:00:16;4.47;;;2.88;;
48963;SDS011;34776;48.180;16.420;2022-08-21T01:02:43;2.90;;;2.70;;
48963;SDS011;34776;48.180;16.420;2022-08-21T01:05:10;3.13;;;2.88;;
48963;SDS011;34776;48.180;16.420;2022-08-21T01:07:36;3.42;;;3.10;;
48963;SDS011;34776;48.180;16.420;2022-08-21T01:10:03;3.47;;;3.17;;
48963;SDS011;34776;48.180;16.420;2022-08-21T01:12:30;3.42;;;3.15;;
48963;SDS011;34776;48.180;16.420;2022-08-21T01:14:56;3.72;;;3.00;;
48963;SDS011;34776;48.180;16.420;2022-08-21T01:17:21;3.38;;;3.08;;
48963;SDS011;34776;48.180;16.420;2022-08-21T01:19:47;5.32;;;3.03;;
48963;SDS011;34776;48.180;16.420;2022-08-21T01:22:12;4.18;;;3.35;;
48963;SDS011;34776;48.180;16.420;2022-08-21T01:24:38;4.03;;;3.20;;
48963;SDS011;34776;48.180;16.420;2022-08-21T01:27:03;3.55;;;3.25;;
48963;SDS011;34776;48.180;16.420;2022-08-21T01:32:11;4.50;;;3.83;;
48963;SDS011;34776;48.180;16.420;2022-08-21T01:34:40;4.28;;;3.90;;
48963;SDS011;34776;48.180;16.420;2022-08-21T01:37:07;4.20;;;3.85;;
48963;SDS011;34776;48.180;16.420;2022-08-21T01:39:33;4.45;;;3.50;;
48963;SDS011;34776;48.180;16.420;2022-08-21T01:41:59;3.50;;;3.22;;
48963;SDS011;34776;48.180;16.420;2022-08-21T01:44:25;3.85;;;3.55;;
48963;SDS011;34776;48.180;16.420;2022-08-21T01:46:51;6.22;;;3.92;;
48963;SDS011;34776;48.180;16.420;2022-08-21T01:49:17;4.18;;;3.60;;
48963;SDS011;34776;48.180;16.420;2022-08-21T01:51:43;3.80;;;3.50;;
48963;SDS011;34776;48.180;16.420;2022-08-21T01:54:08;4.45;;;4.05;;
48963;SDS011;34776;48.180;16.420;2022-08-21T01:56:42;3.95;;;3.60;;
48963;SDS011;34776;48.180;16.420;2022-08-21T01:59:10;4.35;;;4.05;;
48963;SDS011;34776;48.180;16.420;2022-08-21T02:01:36;4.40;;;3.20;;
48963;SDS011;34776;48.180;16.420;2022-08-21T02:04:04;5.13;;;3.47;;
48963;SDS011;34776;48.180;16.420;2022-08-21T02:06:30;3.75;;;3.45;;
48963;SDS011;34776;48.180;16.420;2022-08-21T02:08:56;3.28;;;2.97;;
48963;SDS011;34776;48.180;16.420;2022-08-21T02:11:22;5.28;;;3.33;;
48963;SDS011;34776;48.180;16.420;2022-08-21T02:13:47;3.10;;;2.90;;
48963;SDS011;34776;48.180;16.420;2022-08-21T02:16:13;3.42;;;3.13;;
48963;SDS011;34776;48.180;16.420;2022-08-21T02:18:38;3.75;;;3.45;;
48963;SDS011;34776;48.180;16.420;2022-08-21T02:21:04;3.65;;;3.35;;
48963;SDS011;34776;48.180;16.420;2022-08-21T02:23:30;3.63;;;3.33;;
48963;SDS011;34776;48.180;16.420;2022-08-21T02:25:57;2.97;;;2.78;;
48963;SDS011;34776;48.180;16.420;2022-08-21T02:28:23;3.55;;;3.25;;
48963;SDS011;34776;48.180;16.420;2022-08-21T02:30:49;3.47;;;3.28;;
48963;SDS011;34776;48.180;16.420;2022-08-21T02:33:15;4.18;;;3.30;;
48963;SDS011;34776;48.180;16.420;2022-08-21T02:35:42;3.60;;;3.30;;
48963;SDS011;34776;48.180;16.420;2022-08-21T02:38:10;3.05;;;2.85;;
48963;SDS011;34776;48.180;16.420;2022-08-21T02:40:39;3.20;;;3.00;;
48963;SDS011;34776;48.180;16.420;2022-08-21T02:43:06;3.20;;;2.90;;
48963;SDS011;34776;48.180;16.420;2022-08-21T02:45:32;3.53;;;2.90;;
48963;SDS011;34776;48.180;16.420;2022-08-21T02:47:59;3.28;;;3.00;;
48963;SDS011;34776;48.180;16.420;2022-08-21T02:50:29;2.90;;;2.70;;
48963;SDS011;34776;48.180;16.420;2022-08-21T02:52:57;4.78;;;2.90;;
48963;SDS011;34776;48.180;16.420;2022-08-21T02:55:24;2.67;;;2.47;;
48963;SDS011;34776;48.180;16.420;2022-08-21T02:57:51;2.97;;;2.70;;
48963;SDS011;34776;48.180;16.420;2022-08-21T03:00:18;2.70;;;2.50;;
48963;SDS011;34776;48.180;16.420;2022-08-21T03:02:45;2.83;;;2.63;;
48963;SDS011;34776;48.180;16.420;2022-08-21T03:05:12;2.70;;;2.50;;
48963;SDS011;34776;48.180;16.420;2022-08-21T03:07:40;2.80;;;2.60;;
48963;SDS011;34776;48.180;16.420;2022-08-21T03:10:07;2.83;;;2.63;;
48963;SDS011;34776;48.180;16.420;2022-08-21T03:12:33;3.00;;;2.75;;
48963;SDS011;34776;48.180;16.420;2022-08-21T03:15:00;3.30;;;3.00;;
48963;SDS011;34776;48.180;16.420;2022-08-21T03:17:26;2.90;;;2.70;;
48963;SDS011;34776;48.180;16.420;2022-08-21T03:19:52;2.65;;;2.45;;
48963;SDS011;34776;48.180;16.420;2022-08-21T03:22:17;2.78;;;2.58;;
48963;SDS011;34776;48.180;16.420;2022-08-21T03:24:43;2.95;;;2.65;;
48963;SDS011;34776;48.180;16.420;2022-08-21T03:27:10;2.20;;;2.10;;
48963;SDS011;34776;48.180;16.420;2022-08-21T03:29:37;2.55;;;2.35;;
48963;SDS011;34776;48.180;16.420;2022-08-21T03:32:03;2.40;;;2.20;;
48963;SDS011;34776;48.180;16.420;2022-08-21T03:34:28;2.35;;;2.15;;
48963;SDS011;34776;48.180;16.420;2022-08-21T03:36:54;2.47;;;2.25;;
48963;SDS011;34776;48.180;16.420;2022-08-21T03:39:19;2.20;;;2.00;;
48963;SDS011;34776;48.180;16.420;2022-08-21T03:41:44;1.80;;;1.70;;
48963;SDS011;34776;48.180;16.420;2022-08-21T03:44:10;1.70;;;1.60;;
48963;SDS011;34776;48.180;16.420;2022-08-21T03:46:36;1.80;;;1.70;;
48963;SDS011;34776;48.180;16.420;2022-08-21T03:49:02;1.77;;;1.67;;
48963;SDS011;34776;48.180;16.420;2022-08-21T03:51:27;1.23;;;1.13;;
48963;SDS011;34776;48.180;16.420;2022-08-21T03:53:53;1.77;;;1.50;;
48963;SDS011;34776;48.180;16.420;2022-08-21T03:56:19;1.80;;;1.38;;
48963;SDS011;34776;48.180;16.420;2022-08-21T03:58:44;2.22;;;1.73;;
48963;SDS011;34776;48.180;16.420;2022-08-21T04:01:10;1.75;;;1.55;;
48963;SDS011;34776;48.180;16.420;2022-08-21T04:03:36;1.85;;;1.50;;
48963;SDS011;34776;48.180;16.420;2022-08-21T04:06:02;1.65;;;1.55;;
48963;SDS011;34776;48.180;16.420;2022-08-21T04:08:28;1.50;;;1.40;;
48963;SDS011;34776;48.180;16.420;2022-08-21T04:10:55;1.30;;;1.20;;
48963;SDS011;34776;48.180;16.420;2022-08-21T04:13:22;1.35;;;1.25;;
48963;SDS011;34776;48.180;16.420;2022-08-21T04:15:48;1.20;;;1.20;;
48963;SDS011;34776;48.180;16.420;2022-08-21T04:18:13;1.33;;;1.23;;
48963;SDS011;34776;48.180;16.420;2022-08-21T04:20:39;1.50;;;1.35;;
48963;SDS011;34776;48.180;16.420;2022-08-21T04:23:07;1.60;;;1.50;;
48963;SDS011;34776;48.180;16.420;2022-08-21T04:25:32;1.80;;;1.70;;
48963;SDS011;34776;48.180;16.420;2022-08-21T04:27:58;1.75;;;1.45;;
48963;SDS011;34776;48.180;16.420;2022-08-21T04:30:23;1.50;;;1.40;;
48963;SDS011;34776;48.180;16.420;2022-08-21T04:32:50;1.90;;;1.70;;
48963;SDS011;34776;48.180;16.420;2022-08-21T04:35:17;1.60;;;1.50;;
48963;SDS011;34776;48.180;16.420;2022-08-21T04:37:46;1.67;;;1.58;;
48963;SDS011;34776;48.180;16.420;2022-08-21T04:40:12;2.88;;;1.80;;
48963;SDS011;34776;48.180;16.420;2022-08-21T04:42:47;1.92;;;1.83;;
48963;SDS011;34776;48.180;16.420;2022-08-21T04:45:16;1.77;;;1.67;;
48963;SDS011;34776;48.180;16.420;2022-08-21T04:47:45;1.80;;;1.70;;
48963;SDS011;34776;48.180;16.420;2022-08-21T04:50:13;2.58;;;2.38;;
48963;SDS011;34776;48.180;16.420;2022-08-21T04:52:38;2.05;;;1.95;;
48963;SDS011;34776;48.180;16.420;2022-08-21T04:55:03;2.17;;;2.05;;
48963;SDS011;34776;48.180;16.420;2022-08-21T04:57:30;2.50;;;2.30;;
48963;SDS011;34776;48.180;16.420;2022-08-21T04:59:55;2.20;;;2.10;;
48963;SDS011;34776;48.180;16.420;2022-08-21T05:02:21;2.30;;;2.10;;
48963;SDS011;34776;48.180;16.420;2022-08-21T05:04:48;2.10;;;2.00;;
48963;SDS011;34776;48.180;16.420;2022-08-21T05:07:17;2.50;;;2.30;;
48963;SDS011;34776;48.180;16.420;2022-08-21T05:09:47;2.45;;;2.30;;
48963;SDS011;34776;48.180;16.420;2022-08-21T05:12:13;2.08;;;1.95;;
48963;SDS011;34776;48.180;16.420;2022-08-21T05:14:38;2.40;;;2.20;;
48963;SDS011;34776;48.180;16.420;2022-08-21T05:17:04;4.10;;;2.30;;
48963;SDS011;34776;48.180;16.420;2022-08-21T05:19:30;2.80;;;2.60;;
48963;SDS011;34776;48.180;16.420;2022-08-21T05:21:55;2.60;;;2.40;;
48963;SDS011;34776;48.180;16.420;2022-08-21T05:24:22;2.33;;;2.15;;
48963;SDS011;34776;48.180;16.420;2022-08-21T05:26:47;2.55;;;2.38;;
48963;SDS011;34776;48.180;16.420;2022-08-21T05:29:14;3.05;;;2.85;;
48963;SDS011;34776;48.180;16.420;2022-08-21T05:31:40;3.58;;;3.10;;
48963;SDS011;34776;48.180;16.420;2022-08-21T05:34:06;3.38;;;2.70;;
48963;SDS011;34776;48.180;16.420;2022-08-21T05:36:31;2.60;;;2.40;;
48963;SDS011;34776;48.180;16.420;2022-08-21T05:38:57;2.90;;;2.70;;
48963;SDS011;34776;48.180;16.420;2022-08-21T05:41:22;3.08;;;2.88;;
48963;SDS011;34776;48.180;16.420;2022-08-21T05:43:48;2.90;;;2.50;;
48963;SDS011;34776;48.180;16.420;2022-08-21T05:46:13;3.38;;;3.08;;
48963;SDS011;34776;48.180;16.420;2022-08-21T05:48:39;3.00;;;2.80;;
48963;SDS011;34776;48.180;16.420;2022-08-21T05:51:07;2.60;;;2.40;;
48963;SDS011;34776;48.180;16.420;2022-08-21T05:53:34;4.13;;;2.75;;
48963;SDS011;34776;48.180;16.420;2022-08-21T05:56:00;2.70;;;2.50;;
48963;SDS011;34776;48.180;16.420;2022-08-21T05:58:28;2.97;;;2.78;;
48963;SDS011;34776;48.180;16.420;2022-08-21T06:00:55;2.78;;;2.58;;
48963;SDS011;34776;48.180;16.420;2022-08-21T06:03:22;3.80;;;3.08;;
48963;SDS011;34776;48.180;16.420;2022-08-21T06:05:50;4.25;;;2.58;;
48963;SDS011;34776;48.180;16.420;2022-08-21T06:08:17;3.08;;;2.63;;
48963;SDS011;34776;48.180;16.420;2022-08-21T06:10:43;3.00;;;2.80;;
48963;SDS011;34776;48.180;16.420;2022-08-21T06:13:10;3.30;;;3.00;;
48963;SDS011;34776;48.180;16.420;2022-08-21T06:15:36;4.93;;;4.53;;
48963;SDS011;34776;48.180;16.420;2022-08-21T06:18:03;3.40;;;3.10;;
48963;SDS011;34776;48.180;16.420;2022-08-21T06:20:28;3.10;;;2.80;;
48963;SDS011;34776;48.180;16.420;2022-08-21T06:22:54;3.47;;;2.38;;
48963;SDS011;34776;48.180;16.420;2022-08-21T06:25:20;3.00;;;2.70;;
48963;SDS011;34776;48.180;16.420;2022-08-21T06:27:45;3.00;;;2.80;;
48963;SDS011;34776;48.180;16.420;2022-08-21T06:30:12;3.15;;;2.95;;
48963;SDS011;34776;48.180;16.420;2022-08-21T06:32:38;2.80;;;2.60;;
48963;SDS011;34776;48.180;16.420;2022-08-21T06:35:04;2.90;;;2.70;;
48963;SDS011;34776;48.180;16.420;2022-08-21T06:37:31;3.15;;;2.30;;
48963;SDS011;34776;48.180;16.420;2022-08-21T06:39:57;3.83;;;2.80;;
48963;SDS011;34776;48.180;16.420;2022-08-21T06:42:22;2.83;;;2.58;;
48963;SDS011;34776;48.180;16.420;2022-08-21T06:44:47;3.63;;;2.80;;
48963;SDS011;34776;48.180;16.420;2022-08-21T06:47:13;3.55;;;2.78;;
48963;SDS011;34776;48.180;16.420;2022-08-21T06:49:41;5.10;;;3.50;;
48963;SDS011;34776;48.180;16.420;2022-08-21T06:52:10;4.57;;;4.18;;
48963;SDS011;34776;48.180;16.420;2022-08-21T06:54:38;4.65;;;2.75;;
48963;SDS011;34776;48.180;16.420;2022-08-21T06:57:04;5.03;;;3.20;;
48963;SDS011;34776;48.180;16.420;2022-08-21T06:59:30;5.72;;;3.03;;
48963;SDS011;34776;48.180;16.420;2022-08-21T07:01:57;3.63;;;2.70;;
48963;SDS011;34776;48.180;16.420;2022-08-21T07:04:23;2.60;;;2.40;;
48963;SDS011;34776;48.180;16.420;2022-08-21T07:06:48;3.25;;;2.95;;
48963;SDS011;34776;48.180;16.420;2022-08-21T07:09:14;2.65;;;2.45;;
48963;SDS011;34776;48.180;16.420;2022-08-21T07:11:40;3.55;;;2.53;;
48963;SDS011;34776;48.180;16.420;2022-08-21T07:14:06;2.95;;;2.75;;
48963;SDS011;34776;48.180;16.420;2022-08-21T07:16:31;3.00;;;2.75;;
48963;SDS011;34776;48.180;16.420;2022-08-21T07:18:56;6.53;;;3.08;;
48963;SDS011;34776;48.180;16.420;2022-08-21T07:21:22;5.72;;;3.10;;
48963;SDS011;34776;48.180;16.420;2022-08-21T07:23:48;3.25;;;2.95;;
48963;SDS011;34776;48.180;16.420;2022-08-21T07:26:16;3.72;;;3.10;;
48963;SDS011;34776;48.180;16.420;2022-08-21T07:28:45;3.25;;;2.95;;
48963;SDS011;34776;48.180;16.420;2022-08-21T07:31:13;3.72;;;3.42;;
48963;SDS011;34776;48.180;16.420;2022-08-21T07:33:40;6.20;;;3.60;;
48963;SDS011;34776;48.180;16.420;2022-08-21T07:36:06;3.35;;;3.05;;
48963;SDS011;34776;48.180;16.420;2022-08-21T07:38:32;4.95;;;3.10;;
48963;SDS011;34776;48.180;16.420;2022-08-21T07:40:59;3.53;;;2.83;;
48963;SDS011;34776;48.180;16.420;2022-08-21T07:43:26;5.32;;;3.15;;
48963;SDS011;34776;48.180;16.420;2022-08-21T07:45:53;2.97;;;2.78;;
48963;SDS011;34776;48.180;16.420;2022-08-21T07:48:19;3.30;;;3.00;;
48963;SDS011;34776;48.180;16.420;2022-08-21T07:50:48;3.00;;;2.80;;
48963;SDS011;34776;48.180;16.420;2022-08-21T07:53:15;2.95;;;2.67;;
48963;SDS011;34776;48.180;16.420;2022-08-21T07:55:40;3.00;;;2.75;;
48963;SDS011;34776;48.180;16.420;2022-08-21T07:58:06;3.40;;;3.10;;
48963;SDS011;34776;48.180;16.420;2022-08-21T08:00:32;3.30;;;3.00;;
48963;SDS011;34776;48.180;16.420;2022-08-21T08:02:58;3.45;;;3.08;;
48963;SDS011;34776;48.180;16.420;2022-08-21T08:05:25;5.40;;;3.25;;
48963;SDS011;34776;48.180;16.420;2022-08-21T08:07:52;3.92;;;3.20;;
48963;SDS011;34776;48.180;16.420;2022-08-21T08:10:18;3.22;;;2.97;;
48963;SDS011;34776;48.180;16.420;2022-08-21T08:12:44;2.75;;;2.55;;
48963;SDS011;34776;48.180;16.420;2022-08-21T08:15:13;2.97;;;2.78;;
48963;SDS011;34776;48.180;16.420;2022-08-21T08:17:42;2.72;;;2.53;;
48963;SDS011;34776;48.180;16.420;2022-08-21T08:20:09;3.83;;;2.70;;
48963;SDS011;34776;48.180;16.420;2022-08-21T08:22:36;3.28;;;2.97;;
48963;SDS011;34776;48.180;16.420;2022-08-21T08:25:04;3.25;;;2.60;;
48963;SDS011;34776;48.180;16.420;2022-08-21T08:27:30;3.83;;;3.00;;
48963;SDS011;34776;48.180;16.420;2022-08-21T08:29:57;4.43;;;3.00;;
48963;SDS011;34776;48.180;16.420;2022-08-21T08:32:27;8.40;;;3.20;;
48963;SDS011;34776;48.180;16.420;2022-08-21T08:34:52;3.15;;;2.95;;
48963;SDS011;34776;48.180;16.420;2022-08-21T08:37:18;2.78;;;2.58;;
48963;SDS011;34776;48.180;16.420;2022-08-21T08:39:45;3.70;;;3.33;;
48963;SDS011;34776;48.180;16.420;2022-08-21T08:42:16;2.97;;;2.75;;
48963;SDS011;34776;48.180;16.420;2022-08-21T08:44:49;3.42;;;3.13;;
48963;SDS011;34776;48.180;16.420;2022-08-21T08:47:24;3.58;;;2.83;;
48963;SDS011;34776;48.180;16.420;2022-08-21T08:50:08;3.20;;;2.90;;
48963;SDS011;34776;48.180;16.420;2022-08-21T08:53:45;3.33;;;3.00;;
48963;SDS011;34776;48.180;16.420;2022-08-21T08:55:55;3.47;;;2.70;;
48963;SDS011;34776;48.180;16.420;2022-08-21T08:58:33;4.00;;;2.72;;
48963;SDS011;34776;48.180;16.420;2022-08-21T09:01:05;2.97;;;2.70;;
48963;SDS011;34776;48.180;16.420;2022-08-21T09:03:40;3.40;;;3.10;;
48963;SDS011;34776;48.180;16.420;2022-08-21T09:12:23;3.08;;;2.80;;
48963;SDS011;34776;48.180;16.420;2022-08-21T09:23:40;6.38;;;3.08;;
48963;SDS011;34776;48.180;16.420;2022-08-21T09:26:17;2.95;;;2.75;;
48963;SDS011;34776;48.180;16.420;2022-08-21T09:28:45;5.25;;;3.13;;
48963;SDS011;34776;48.180;16.420;2022-08-21T09:31:21;2.80;;;2.60;;
48963;SDS011;34776;48.180;16.420;2022-08-21T09:33:50;3.25;;;2.83;;
48963;SDS011;34776;48.180;16.420;2022-08-21T09:36:35;3.15;;;2.55;;
48963;SDS011;34776;48.180;16.420;2022-08-21T09:39:02;1.92;;;1.80;;
48963;SDS011;34776;48.180;16.420;2022-08-21T09:41:29;2.20;;;2.10;;
48963;SDS011;34776;48.180;16.420;2022-08-21T09:43:56;2.47;;;2.28;;
48963;SDS011;34776;48.180;16.420;2022-08-21T09:46:24;2.00;;;1.90;;
48963;SDS011;34776;48.180;16.420;2022-08-21T09:48:55;2.20;;;2.08;;
48963;SDS011;34776;48.180;16.420;2022-08-21T09:51:23;6.35;;;2.90;;
48963;SDS011;34776;48.180;16.420;2022-08-21T09:53:55;1.83;;;1.70;;
48963;SDS011;34776;48.180;16.420;2022-08-21T09:56:37;2.38;;;1.92;;
48963;SDS011;34776;48.180;16.420;2022-08-21T09:59:43;1.80;;;1.60;;
48963;SDS011;34776;48.180;16.420;2022-08-21T10:02:26;1.52;;;1.42;;
48963;SDS011;34776;48.180;16.420;2022-08-21T10:04:57;1.88;;;1.33;;
48963;SDS011;34776;48.180;16.420;2022-08-21T10:07:28;3.33;;;1.45;;
48963;SDS011;34776;48.180;16.420;2022-08-21T10:10:14;2.95;;;2.67;;
48963;SDS011;34776;48.180;16.420;2022-08-21T10:18:43;2.53;;;2.33;;
48963;SDS011;34776;48.180;16.420;2022-08-21T10:29:49;2.58;;;1.45;;
48963;SDS011;34776;48.180;16.420;2022-08-21T10:37:59;2.10;;;2.00;;
48963;SDS011;34776;48.180;16.420;2022-08-21T10:48:16;2.65;;;2.45;;
48963;SDS011;34776;48.180;16.420;2022-08-21T10:54:05;2.70;;;2.15;;
48963;SDS011;34776;48.180;16.420;2022-08-21T10:56:42;6.13;;;2.45;;
48963;SDS011;34776;48.180;16.420;2022-08-21T11:01:45;2.55;;;2.38;;
48963;SDS011;34776;48.180;16.420;2022-08-21T11:04:16;2.10;;;2.00;;
48963;SDS011;34776;48.180;16.420;2022-08-21T11:06:50;2.17;;;1.98;;
48963;SDS011;34776;48.180;16.420;2022-08-21T11:09:37;4.10;;;2.10;;
48963;SDS011;34776;48.180;16.420;2022-08-21T11:18:00;1.55;;;1.45;;
48963;SDS011;34776;48.180;16.420;2022-08-21T11:21:01;1.58;;;1.48;;
48963;SDS011;34776;48.180;16.420;2022-08-21T11:23:48;1.60;;;1.50;;
48963;SDS011;34776;48.180;16.420;2022-08-21T11:26:30;1.50;;;1.40;;
48963;SDS011;34776;48.180;16.420;2022-08-21T11:29:02;1.88;;;1.73;;
48963;SDS011;34776;48.180;16.420;2022-08-21T11:34:19;1.42;;;1.33;;
48963;SDS011;34776;48.180;16.420;2022-08-21T11:39:47;1.48;;;1.20;;
48963;SDS011;34776;48.180;16.420;2022-08-21T11:47:31;1.65;;;1.55;;
48963;SDS011;34776;48.180;16.420;2022-08-21T11:52:44;1.73;;;1.30;;
48963;SDS011;34776;48.180;16.420;2022-08-21T11:55:19;1.17;;;1.10;;
48963;SDS011;34776;48.180;16.420;2022-08-21T11:57:58;1.30;;;1.20;;
48963;SDS011;34776;48.180;16.420;2022-08-21T12:00:37;3.78;;;1.40;;
48963;SDS011;34776;48.180;16.420;2022-08-21T12:03:08;1.15;;;1.10;;
48963;SDS011;34776;48.180;16.420;2022-08-21T12:05:38;2.05;;;1.90;;
48963;SDS011;34776;48.180;16.420;2022-08-21T12:08:11;1.27;;;1.20;;
48963;SDS011;34776;48.180;16.420;2022-08-21T12:10:40;4.78;;;1.48;;
48963;SDS011;34776;48.180;16.420;2022-08-21T12:13:24;1.40;;;1.30;;
48963;SDS011;34776;48.180;16.420;2022-08-21T12:15:52;1.80;;;1.48;;
48963;SDS011;34776;48.180;16.420;2022-08-21T12:18:30;5.38;;;1.50;;
48963;SDS011;34776;48.180;16.420;2022-08-21T12:23:47;1.50;;;1.40;;
48963;SDS011;34776;48.180;16.420;2022-08-21T12:28:51;1.30;;;1.20;;
48963;SDS011;34776;48.180;16.420;2022-08-21T12:31:46;1.70;;;1.60;;
48963;SDS011;34776;48.180;16.420;2022-08-21T12:34:14;1.58;;;1.35;;
48963;SDS011;34776;48.180;16.420;2022-08-21T12:36:45;21.63;;;1.90;;
48963;SDS011;34776;48.180;16.420;2022-08-21T12:39:17;2.30;;;1.50;;
48963;SDS011;34776;48.180;16.420;2022-08-21T12:44:28;2.97;;;1.60;;
48963;SDS011;34776;48.180;16.420;2022-08-21T12:47:04;1.60;;;1.50;;
48963;SDS011;34776;48.180;16.420;2022-08-21T12:49:43;1.60;;;1.50;;
48963;SDS011;34776;48.180;16.420;2022-08-21T12:52:27;2.85;;;1.40;;
48963;SDS011;34776;48.180;16.420;2022-08-21T12:55:02;1.25;;;1.20;;
48963;SDS011;34776;48.180;16.420;2022-08-21T12:57:28;3.92;;;1.27;;
48963;SDS011;34776;48.180;16.420;2022-08-21T13:00:04;1.83;;;1.67;;
48963;SDS011;34776;48.180;16.420;2022-08-21T13:02:42;2.85;;;2.60;;
48963;SDS011;34776;48.180;16.420;2022-08-21T13:05:13;2.58;;;1.65;;
48963;SDS011;34776;48.180;16.420;2022-08-21T13:07:45;2.83;;;1.65;;
48963;SDS011;34776;48.180;16.420;2022-08-21T13:12:49;1.80;;;1.60;;
48963;SDS011;34776;48.180;16.420;2022-08-21T13:15:22;3.88;;;1.75;;
48963;SDS011;34776;48.180;16.420;2022-08-21T13:17:51;3.28;;;1.50;;
48963;SDS011;34776;48.180;16.420;2022-08-21T13:20:22;1.67;;;1.45;;
48963;SDS011;34776;48.180;16.420;2022-08-21T13:22:50;1.63;;;1.48;;
48963;SDS011;34776;48.180;16.420;2022-08-21T13:25:16;2.13;;;1.80;;
48963;SDS011;34776;48.180;16.420;2022-08-21T13:27:56;2.58;;;2.28;;
48963;SDS011;34776;48.180;16.420;2022-08-21T13:30:24;2.45;;;1.80;;
48963;SDS011;34776;48.180;16.420;2022-08-21T13:32:52;1.90;;;1.70;;
48963;SDS011;34776;48.180;16.420;2022-08-21T13:35:25;2.25;;;2.00;;
48963;SDS011;34776;48.180;16.420;2022-08-21T13:38:02;2.53;;;2.33;;
48963;SDS011;34776;48.180;16.420;2022-08-21T13:40:30;4.03;;;1.70;;
48963;SDS011;34776;48.180;16.420;2022-08-21T13:42:57;2.10;;;1.90;;
48963;SDS011;34776;48.180;16.420;2022-08-21T13:45:26;2.10;;;1.48;;
48963;SDS011;34776;48.180;16.420;2022-08-21T13:47:57;1.40;;;1.30;;
48963;SDS011;34776;48.180;16.420;2022-08-21T13:50:25;4.93;;;1.50;;
48963;SDS011;34776;48.180;16.420;2022-08-21T13:53:00;2.83;;;1.45;;
48963;SDS011;34776;48.180;16.420;2022-08-21T13:56:01;1.73;;;1.50;;
48963;SDS011;34776;48.180;16.420;2022-08-21T13:58:33;1.85;;;1.52;;
48963;SDS011;34776;48.180;16.420;2022-08-21T14:01:15;5.45;;;1.60;;
48963;SDS011;34776;48.180;16.420;2022-08-21T14:03:43;2.20;;;1.60;;
48963;SDS011;34776;48.180;16.420;2022-08-21T14:06:14;3.08;;;1.70;;
48963;SDS011;34776;48.180;16.420;2022-08-21T14:08:48;1.70;;;1.60;;
48963;SDS011;34776;48.180;16.420;2022-08-21T14:11:17;1.98;;;1.50;;
48963;SDS011;34776;48.180;16.420;2022-08-21T14:13:51;1.65;;;1.55;;
48963;SDS011;34776;48.180;16.420;2022-08-21T14:16:24;2.60;;;2.03;;
48963;SDS011;34776;48.180;16.420;2022-08-21T14:18:53;2.55;;;1.90;;
48963;SDS011;34776;48.180;16.420;2022-08-21T14:21:35;6.22;;;4.38;;
48963;SDS011;34776;48.180;16.420;2022-08-21T14:24:13;3.72;;;3.28;;
48963;SDS011;34776;48.180;16.420;2022-08-21T14:26:54;6.35;;;2.42;;
48963;SDS011;34776;48.180;16.420;2022-08-21T14:29:31;3.10;;;1.90;;
48963;SDS011;34776;48.180;16.420;2022-08-21T14:31:59;3.28;;;1.90;;
48963;SDS011;34776;48.180;16.420;2022-08-21T14:34:33;5.63;;;2.40;;
48963;SDS011;34776;48.180;16.420;2022-08-21T14:36:58;2.33;;;1.90;;
48963;SDS011;34776;48.180;16.420;2022-08-21T14:39:25;2.35;;;1.90;;
48963;SDS011;34776;48.180;16.420;2022-08-21T14:41:50;3.03;;;2.28;;
48963;SDS011;34776;48.180;16.420;2022-08-21T14:44:17;3.67;;;2.30;;
48963;SDS011;34776;48.180;16.420;2022-08-21T14:46:44;2.63;;;2.08;;
48963;SDS011;34776;48.180;16.420;2022-08-21T14:49:10;2.33;;;2.13;;
48963;SDS011;34776;48.180;16.420;2022-08-21T14:51:36;4.10;;;2.10;;
48963;SDS011;34776;48.180;16.420;2022-08-21T14:54:03;4.70;;;2.22;;
48963;SDS011;34776;48.180;16.420;2022-08-21T14:56:29;3.45;;;2.30;;
48963;SDS011;34776;48.180;16.420;2022-08-21T14:58:55;2.60;;;2.40;;
48963;SDS011;34776;48.180;16.420;2022-08-21T15:01:25;2.83;;;2.33;;
48963;SDS011;34776;48.180;16.420;2022-08-21T15:03:52;4.00;;;2.22;;
48963;SDS011;34776;48.180;16.420;2022-08-21T15:06:17;2.97;;;2.47;;
48963;SDS011;34776;48.180;16.420;2022-08-21T15:08:43;3.55;;;2.60;;
48963;SDS011;34776;48.180;16.420;2022-08-21T15:11:08;2.47;;;2.28;;
48963;SDS011;34776;48.180;16.420;2022-08-21T15:13:41;2.28;;;2.08;;
48963;SDS011;34776;48.180;16.420;2022-08-21T15:16:07;3.13;;;2.67;;
48963;SDS011;34776;48.180;16.420;2022-08-21T15:18:34;2.88;;;2.60;;
48963;SDS011;34776;48.180;16.420;2022-08-21T15:20:59;3.20;;;2.25;;
48963;SDS011;34776;48.180;16.420;2022-08-21T15:23:25;3.67;;;3.33;;
48963;SDS011;34776;48.180;16.420;2022-08-21T15:25:50;11.00;;;3.75;;
48963;SDS011;34776;48.180;16.420;2022-08-21T15:28:17;3.30;;;3.00;;
48963;SDS011;34776;48.180;16.420;2022-08-21T15:30:43;3.00;;;2.50;;
48963;SDS011;34776;48.180;16.420;2022-08-21T15:33:09;4.22;;;3.03;;
48963;SDS011;34776;48.180;16.420;2022-08-21T15:35:35;3.15;;;2.33;;
48963;SDS011;34776;48.180;16.420;2022-08-21T15:38:01;2.78;;;2.40;;
48963;SDS011;34776;48.180;16.420;2022-08-21T15:40:27;3.38;;;2.75;;
48963;SDS011;34776;48.180;16.420;2022-08-21T15:42:55;3.17;;;2.60;;
48963;SDS011;34776;48.180;16.420;2022-08-21T15:45:26;3.00;;;2.70;;
48963;SDS011;34776;48.180;16.420;2022-08-21T15:47:52;3.00;;;2.67;;
48963;SDS011;34776;48.180;16.420;2022-08-21T15:50:18;3.50;;;2.67;;
48963;SDS011;34776;48.180;16.420;2022-08-21T15:52:45;6.25;;;2.78;;
48963;SDS011;34776;48.180;16.420;2022-08-21T15:55:10;3.03;;;2.40;;
48963;SDS011;34776;48.180;16.420;2022-08-21T15:57:36;2.88;;;2.58;;
48963;SDS011;34776;48.180;16.420;2022-08-21T16:00:12;2.90;;;2.60;;
48963;SDS011;34776;48.180;16.420;2022-08-21T16:02:44;5.15;;;2.65;;
48963;SDS011;34776;48.180;16.420;2022-08-21T16:05:13;4.85;;;2.80;;